createdAt,value
2023-05-19T00:00:51.109Z,4.20
2023-05-19T00:03:21.872Z,3.90
2023-05-19T00:05:50.516Z,4.40
2023-05-19T00:08:20.405Z,3.60
2023-05-19T00:10:49.067Z,3.90
2023-05-19T00:13:17.564Z,4.20
2023-05-19T00:15:46.115Z,4.57
2023-05-19T00:18:14.436Z,4.00
2023-05-19T00:20:44.025Z,3.53
2023-05-19T00:23:12.441Z,3.93
2023-05-19T00:25:40.429Z,3.83
2023-05-19T00:28:08.522Z,3.67
2023-05-19T00:30:36.458Z,4.75
2023-05-19T00:33:04.629Z,4.07
2023-05-19T00:35:32.772Z,3.80
2023-05-19T00:38:02.147Z,3.77
2023-05-19T00:40:33.273Z,3.93
2023-05-19T00:43:01.587Z,5.10
2023-05-19T00:45:29.872Z,4.33
2023-05-19T00:47:58.201Z,3.17
2023-05-19T00:50:27.414Z,3.20
2023-05-19T00:52:55.882Z,3.90
2023-05-19T00:55:29.386Z,4.67
2023-05-19T00:57:58.899Z,3.93
2023-05-19T01:00:26.928Z,4.00
2023-05-19T01:02:56.114Z,4.20
2023-05-19T01:05:24.429Z,3.10
2023-05-19T01:07:53.594Z,3.67
2023-05-19T01:10:22.111Z,3.87
2023-05-19T01:12:51.491Z,3.87
2023-05-19T01:15:19.592Z,4.30
2023-05-19T01:17:55.604Z,3.43
2023-05-19T01:20:31.346Z,3.27
2023-05-19T01:23:36.637Z,3.90
2023-05-19T01:26:18.199Z,4.23
2023-05-19T01:29:23.921Z,3.30
2023-05-19T01:31:55.685Z,4.00
2023-05-19T01:34:27.534Z,4.13
2023-05-19T01:36:56.991Z,3.70
2023-05-19T01:39:25.892Z,3.47
2023-05-19T01:41:55.012Z,3.67
2023-05-19T01:44:24.666Z,3.90
2023-05-19T01:46:54.967Z,3.70
2023-05-19T01:49:23.295Z,4.00
2023-05-19T01:51:51.395Z,3.37
2023-05-19T01:54:19.358Z,4.10
2023-05-19T01:56:58.608Z,3.70
2023-05-19T01:59:36.879Z,4.10
2023-05-19T02:02:12.276Z,4.33
2023-05-19T02:04:50.191Z,3.80
2023-05-19T02:07:26.184Z,3.77
2023-05-19T02:09:59.316Z,3.90
2023-05-19T02:12:33.289Z,3.70
2023-05-19T02:15:06.252Z,4.20
2023-05-19T02:17:38.420Z,3.13
2023-05-19T02:20:08.654Z,4.00
2023-05-19T02:22:37.006Z,4.03
2023-05-19T02:25:05.481Z,4.00
2023-05-19T02:27:33.665Z,4.50
2023-05-19T02:30:01.627Z,3.50
2023-05-19T02:32:29.789Z,4.40
2023-05-19T02:34:59.256Z,3.87
2023-05-19T02:37:28.374Z,4.40
2023-05-19T02:39:57.089Z,3.40
2023-05-19T02:42:25.125Z,3.83
2023-05-19T02:44:54.343Z,4.23
2023-05-19T02:47:22.392Z,4.07
2023-05-19T02:49:50.632Z,4.20
2023-05-19T02:52:19.962Z,3.93
2023-05-19T02:54:48.134Z,3.77
2023-05-19T02:57:16.108Z,4.17
2023-05-19T02:59:44.230Z,3.87
2023-05-19T03:02:12.694Z,3.90
2023-05-19T03:04:43.179Z,4.70
2023-05-19T03:07:13.275Z,4.43
2023-05-19T03:09:43.783Z,3.90
2023-05-19T03:12:11.723Z,5.07
2023-05-19T03:14:39.669Z,3.90
2023-05-19T03:17:10.337Z,4.07
2023-05-19T03:19:38.520Z,3.83
2023-05-19T03:22:06.824Z,3.70
2023-05-19T03:24:34.783Z,4.50
2023-05-19T03:27:05.232Z,4.50
2023-05-19T03:29:33.410Z,4.50
2023-05-19T03:32:01.751Z,4.37
2023-05-19T03:34:29.917Z,4.30
2023-05-19T03:36:57.923Z,5.20
2023-05-19T03:39:26.061Z,4.00
2023-05-19T03:41:54.041Z,5.13
2023-05-19T03:44:23.368Z,4.27
2023-05-19T03:46:51.485Z,4.30
2023-05-19T03:49:19.558Z,4.97
2023-05-19T03:51:47.512Z,4.60
2023-05-19T03:54:15.668Z,4.63
2023-05-19T03:56:44.280Z,4.33
2023-05-19T03:59:12.460Z,3.70
2023-05-19T04:01:41.796Z,4.30
2023-05-19T04:04:10.043Z,5.07
2023-05-19T04:06:38.040Z,4.50
2023-05-19T04:09:14.035Z,4.60
2023-05-19T04:11:42.338Z,4.00
2023-05-19T04:14:10.667Z,4.20
2023-05-19T04:16:39.105Z,5.40
2023-05-19T04:19:08.658Z,3.47
2023-05-19T04:21:36.953Z,4.77
2023-05-19T04:24:06.459Z,3.83
2023-05-19T04:26:34.751Z,4.23
2023-05-19T04:29:05.112Z,4.37
2023-05-19T04:31:34.334Z,4.30
2023-05-19T04:34:03.005Z,4.70
2023-05-19T04:36:34.187Z,4.63
2023-05-19T04:39:06.361Z,4.60
2023-05-19T04:41:34.854Z,4.20
2023-05-19T04:44:02.977Z,5.30
2023-05-19T04:46:30.921Z,4.63
2023-05-19T04:49:01.317Z,3.80
2023-05-19T04:51:31.629Z,4.70
2023-05-19T04:54:01.716Z,4.67
2023-05-19T04:56:30.233Z,5.13
2023-05-19T04:58:58.299Z,4.15
2023-05-19T05:01:26.528Z,4.25
2023-05-19T05:03:56.156Z,4.17
2023-05-19T05:06:24.180Z,4.25
2023-05-19T05:08:52.821Z,4.57
2023-05-19T05:11:22.734Z,4.77
2023-05-19T05:13:51.816Z,4.00
2023-05-19T05:16:20.232Z,4.83
2023-05-19T05:18:48.778Z,4.80
2023-05-19T05:21:17.355Z,4.80
2023-05-19T05:23:45.968Z,4.97
2023-05-19T05:26:19.815Z,4.30
2023-05-19T05:28:49.158Z,4.60
2023-05-19T05:31:17.164Z,4.30
2023-05-19T05:33:45.677Z,4.57
2023-05-19T05:36:13.686Z,5.13
2023-05-19T05:38:41.861Z,4.30
2023-05-19T05:41:09.826Z,4.07
2023-05-19T05:43:38.070Z,5.20
2023-05-19T05:46:07.399Z,5.10
2023-05-19T05:48:36.345Z,4.50
2023-05-19T05:51:04.882Z,4.17
2023-05-19T05:53:38.326Z,4.00
2023-05-19T05:56:08.002Z,4.60
2023-05-19T05:58:37.907Z,4.40
2023-05-19T06:01:10.567Z,4.20
2023-05-19T06:03:40.258Z,4.30
2023-05-19T06:06:08.766Z,4.10
2023-05-19T06:08:36.845Z,4.23
2023-05-19T06:11:08.441Z,3.70
2023-05-19T06:13:37.012Z,4.23
2023-05-19T06:16:05.961Z,3.70
2023-05-19T06:18:35.280Z,4.20
2023-05-19T06:21:03.503Z,3.73
2023-05-19T06:23:31.931Z,4.60
2023-05-19T06:26:00.089Z,4.47
2023-05-19T06:28:28.098Z,4.27
2023-05-19T06:30:56.231Z,3.80
2023-05-19T06:33:26.100Z,4.10
2023-05-19T06:35:56.952Z,4.17
2023-05-19T06:38:25.069Z,4.10
2023-05-19T06:40:53.089Z,4.10
2023-05-19T06:43:21.243Z,3.53
2023-05-19T06:45:49.228Z,3.63
2023-05-19T06:48:17.185Z,3.03
2023-05-19T06:50:45.210Z,3.93
2023-05-19T06:53:14.778Z,3.67
2023-05-19T06:55:57.346Z,4.53
2023-05-19T06:58:26.682Z,3.20
2023-05-19T07:00:54.783Z,4.10
2023-05-19T07:03:22.810Z,3.80
2023-05-19T07:05:51.113Z,3.30
2023-05-19T07:08:20.637Z,3.60
2023-05-19T07:10:48.707Z,3.60
2023-05-19T07:13:16.789Z,3.17
2023-05-19T07:15:44.751Z,2.80
2023-05-19T07:18:12.909Z,3.10
2023-05-19T07:20:40.939Z,3.57
2023-05-19T07:23:08.979Z,3.07
2023-05-19T07:25:38.359Z,2.60
2023-05-19T07:28:06.463Z,3.00
2023-05-19T07:30:34.760Z,2.60
2023-05-19T07:33:03.438Z,2.80
2023-05-19T07:35:31.606Z,3.57
2023-05-19T07:37:59.742Z,4.00
2023-05-19T07:40:27.800Z,4.50
2023-05-19T07:42:57.150Z,3.83
2023-05-19T07:45:25.130Z,3.47
2023-05-19T07:47:54.145Z,3.60
2023-05-19T07:50:22.775Z,4.53
2023-05-19T07:52:50.974Z,4.27
2023-05-19T07:55:19.382Z,3.77
2023-05-19T07:57:47.670Z,4.37
2023-05-19T08:00:18.150Z,3.10
2023-05-19T08:02:46.639Z,4.00
2023-05-19T08:05:14.948Z,4.13
2023-05-19T08:07:42.926Z,4.63
2023-05-19T08:10:11.214Z,4.80
2023-05-19T08:12:39.346Z,4.70
2023-05-19T08:15:08.418Z,4.37
2023-05-19T08:17:37.958Z,4.27
2023-05-19T08:20:08.652Z,3.87
2023-05-19T08:22:36.892Z,4.70
2023-05-19T08:25:06.261Z,4.60
2023-05-19T08:27:34.651Z,4.10
2023-05-19T08:30:02.852Z,4.30
2023-05-19T08:32:30.820Z,4.53
2023-05-19T08:35:00.226Z,5.10
2023-05-19T08:37:28.290Z,4.60
2023-05-19T08:39:57.167Z,5.17
2023-05-19T08:42:25.261Z,4.60
2023-05-19T08:44:53.288Z,5.70
2023-05-19T08:47:21.434Z,4.57
2023-05-19T08:49:53.703Z,5.23
2023-05-19T08:52:33.630Z,4.23
2023-05-19T08:55:06.272Z,4.73
2023-05-19T08:57:34.881Z,4.40
2023-05-19T09:00:06.758Z,5.47
2023-05-19T09:02:34.842Z,4.47
2023-05-19T09:05:03.391Z,3.93
2023-05-19T09:07:34.908Z,4.47
2023-05-19T09:10:03.652Z,5.17
2023-05-19T09:12:32.047Z,4.93
2023-05-19T09:15:00.202Z,4.40
2023-05-19T09:17:28.228Z,4.63
2023-05-19T09:19:56.411Z,4.33
2023-05-19T09:22:25.444Z,4.23
2023-05-19T09:24:54.990Z,4.40
2023-05-19T09:27:24.403Z,5.23
2023-05-19T09:29:53.650Z,5.00
2023-05-19T09:32:28.386Z,4.13
2023-05-19T09:34:57.298Z,5.10
2023-05-19T09:37:25.836Z,4.37
2023-05-19T09:39:55.928Z,5.13
2023-05-19T09:42:28.414Z,4.47
2023-05-19T09:45:01.837Z,4.20
2023-05-19T09:47:34.101Z,5.20
2023-05-19T09:50:02.044Z,4.20
2023-05-19T09:52:30.101Z,4.43
2023-05-19T09:55:00.271Z,4.87
2023-05-19T09:57:29.057Z,4.67
2023-05-19T09:59:58.638Z,4.73
2023-05-19T10:02:27.472Z,5.00
2023-05-19T10:04:56.108Z,4.57
2023-05-19T10:07:25.734Z,4.67
2023-05-19T10:09:56.593Z,4.40
2023-05-19T10:12:28.293Z,5.27
2023-05-19T10:14:56.703Z,4.63
2023-05-19T10:17:27.349Z,5.90
2023-05-19T10:19:55.886Z,5.00
2023-05-19T10:22:24.116Z,4.50
2023-05-19T10:24:52.154Z,5.07
2023-05-19T10:27:21.122Z,5.20
2023-05-19T10:29:52.803Z,4.97
2023-05-19T10:32:24.941Z,5.60
2023-05-19T10:35:10.529Z,5.50
2023-05-19T10:37:46.688Z,5.13
2023-05-19T10:40:23.082Z,5.10
2023-05-19T10:43:08.936Z,5.40
2023-05-19T10:45:47.038Z,5.53
2023-05-19T10:48:16.316Z,5.70
2023-05-19T10:50:46.332Z,5.07
2023-05-19T10:53:21.083Z,5.60
2023-05-19T10:55:53.217Z,5.63
2023-05-19T10:58:41.848Z,5.60
2023-05-19T11:01:14.983Z,5.27
2023-05-19T11:03:48.188Z,5.70
2023-05-19T11:06:26.235Z,6.30
2023-05-19T11:08:56.098Z,6.23
2023-05-19T11:11:24.211Z,5.53
2023-05-19T11:13:53.113Z,5.50
2023-05-19T11:16:28.836Z,7.00
2023-05-19T11:18:57.338Z,5.80
2023-05-19T11:21:25.691Z,6.20
2023-05-19T11:23:53.874Z,6.07
2023-05-19T11:26:42.032Z,5.90
2023-05-19T11:29:10.422Z,5.97
2023-05-19T11:31:41.296Z,5.60
2023-05-19T11:34:10.152Z,6.13
2023-05-19T11:36:39.954Z,6.60
2023-05-19T11:39:09.597Z,5.80
2023-05-19T11:41:40.926Z,5.37
2023-05-19T11:44:12.010Z,6.45
2023-05-19T11:46:41.608Z,6.10
2023-05-19T11:49:10.755Z,5.37
2023-05-19T11:51:38.798Z,5.93
2023-05-19T11:54:06.833Z,5.10
2023-05-19T11:56:36.698Z,6.27
2023-05-19T11:59:04.936Z,6.13
2023-05-19T12:01:34.476Z,6.20
2023-05-19T12:04:04.678Z,5.93
2023-05-19T12:06:33.148Z,6.40
2023-05-19T12:09:01.392Z,7.83
2023-05-19T12:11:29.941Z,5.80
2023-05-19T12:14:00.330Z,8.67
2023-05-19T12:16:35.475Z,6.90
2023-05-19T12:19:09.733Z,6.37
2023-05-19T12:21:37.851Z,6.77
2023-05-19T12:24:07.239Z,6.60
2023-05-19T12:26:36.960Z,7.10
2023-05-19T12:29:07.642Z,7.60
2023-05-19T12:31:36.273Z,7.17
2023-05-19T12:34:05.729Z,6.70
2023-05-19T12:36:34.041Z,5.80
2023-05-19T12:39:02.065Z,6.07
2023-05-19T12:41:30.877Z,7.57
2023-05-19T12:43:58.885Z,7.10
2023-05-19T12:46:26.967Z,6.87
2023-05-19T12:49:00.782Z,6.73
2023-05-19T12:51:30.116Z,6.77
2023-05-19T12:53:58.296Z,7.03
2023-05-19T12:56:28.185Z,6.10
2023-05-19T12:58:56.599Z,7.00
2023-05-19T13:01:25.553Z,6.40
2023-05-19T13:03:54.077Z,6.80
2023-05-19T13:06:22.376Z,5.30
2023-05-19T13:08:51.694Z,6.23
2023-05-19T13:11:19.688Z,5.87
2023-05-19T13:13:47.702Z,6.30
2023-05-19T13:16:15.737Z,7.00
2023-05-19T13:18:43.822Z,6.80
2023-05-19T13:21:12.132Z,6.73
2023-05-19T13:23:40.136Z,6.80
2023-05-19T13:26:11.475Z,7.40
2023-05-19T13:28:39.434Z,6.70
2023-05-19T13:31:07.423Z,5.50
2023-05-19T13:33:35.422Z,6.27
2023-05-19T13:36:03.387Z,6.03
2023-05-19T13:38:31.480Z,6.07
2023-05-19T13:40:59.535Z,6.20
2023-05-19T13:43:28.936Z,6.20
2023-05-19T13:45:57.048Z,6.13
2023-05-19T13:48:26.103Z,7.07
2023-05-19T13:50:55.595Z,6.60
2023-05-19T13:53:23.782Z,6.27
2023-05-19T13:55:52.956Z,6.50
2023-05-19T13:58:21.118Z,5.90
2023-05-19T14:00:54.460Z,6.50
2023-05-19T14:03:23.056Z,6.70
2023-05-19T14:05:51.372Z,7.10
2023-05-19T14:08:20.331Z,6.30
2023-05-19T14:10:48.481Z,6.40
2023-05-19T14:13:31.536Z,6.40
2023-05-19T14:16:03.844Z,6.47
2023-05-19T14:18:32.861Z,6.67
2023-05-19T14:21:00.851Z,6.30
2023-05-19T14:23:30.502Z,6.00
2023-05-19T14:25:58.633Z,6.03
2023-05-19T14:28:26.618Z,5.78
2023-05-19T14:30:54.642Z,6.17
2023-05-19T14:33:24.706Z,6.33
2023-05-19T14:35:53.843Z,5.97
2023-05-19T14:38:21.771Z,6.60
2023-05-19T14:40:49.732Z,6.07
2023-05-19T14:43:17.732Z,6.20
2023-05-19T14:45:45.798Z,5.70
2023-05-19T14:48:13.866Z,6.63
2023-05-19T14:50:43.281Z,5.60
2023-05-19T14:53:11.788Z,5.80
2023-05-19T14:55:39.710Z,5.60
2023-05-19T14:58:19.744Z,5.87
2023-05-19T15:00:55.771Z,6.63
2023-05-19T15:03:24.166Z,6.23
2023-05-19T15:05:53.636Z,5.63
2023-05-19T15:08:21.721Z,6.20
2023-05-19T15:10:49.971Z,6.20
2023-05-19T15:13:18.900Z,6.70
2023-05-19T15:15:47.172Z,5.40
2023-05-19T15:18:17.911Z,6.10
2023-05-19T15:20:46.532Z,5.93
2023-05-19T15:23:15.804Z,5.30
2023-05-19T15:25:45.712Z,5.83
2023-05-19T15:28:14.393Z,5.77
2023-05-19T15:30:43.255Z,5.60
2023-05-19T15:33:11.819Z,5.82
2023-05-19T15:35:39.807Z,5.00
2023-05-19T15:38:07.940Z,5.33
2023-05-19T15:40:37.399Z,5.53
2023-05-19T15:43:05.384Z,5.50
2023-05-19T15:45:35.733Z,5.07
2023-05-19T15:48:03.732Z,4.73
2023-05-19T15:50:31.847Z,5.20
2023-05-19T15:53:00.201Z,5.63
2023-05-19T15:55:28.242Z,4.70
2023-05-19T15:57:57.585Z,5.10
2023-05-19T16:00:25.564Z,5.20
2023-05-19T16:02:53.734Z,5.43
2023-05-19T16:05:22.145Z,5.70
2023-05-19T16:07:50.093Z,4.90
2023-05-19T16:10:18.094Z,5.90
2023-05-19T16:12:46.177Z,5.07
2023-05-19T16:15:15.585Z,5.40
2023-05-19T16:17:43.592Z,4.90
2023-05-19T16:20:12.544Z,5.30
2023-05-19T16:22:40.678Z,5.73
2023-05-19T16:25:09.613Z,5.60
2023-05-19T16:27:37.756Z,5.33
2023-05-19T16:30:06.544Z,5.90
2023-05-19T16:32:35.904Z,4.77
2023-05-19T16:35:03.919Z,6.10
2023-05-19T16:37:32.327Z,5.40
2023-05-19T16:40:00.313Z,4.93
2023-05-19T16:42:28.516Z,5.03
2023-05-19T16:44:56.591Z,4.90
2023-05-19T16:47:24.734Z,4.50
2023-05-19T16:49:54.235Z,5.00
2023-05-19T16:52:22.207Z,5.07
2023-05-19T16:54:50.383Z,4.57
2023-05-19T16:57:18.344Z,5.63
2023-05-19T16:59:47.315Z,5.27
2023-05-19T17:02:15.485Z,5.40
2023-05-19T17:04:43.464Z,4.27
2023-05-19T17:07:15.840Z,5.20
2023-05-19T17:09:44.213Z,5.83
2023-05-19T17:12:13.447Z,5.10
2023-05-19T17:14:42.316Z,4.80
2023-05-19T17:17:10.604Z,4.53
2023-05-19T17:19:38.937Z,4.93
2023-05-19T17:22:07.021Z,4.60
2023-05-19T17:24:36.569Z,5.20
2023-05-19T17:27:05.122Z,5.50
2023-05-19T17:29:33.140Z,4.37
2023-05-19T17:32:01.165Z,4.67
2023-05-19T17:34:30.050Z,5.40
2023-05-19T17:36:57.997Z,4.83
2023-05-19T17:39:26.090Z,5.03
2023-05-19T17:41:55.439Z,4.80
2023-05-19T17:44:23.529Z,3.80
2023-05-19T17:46:51.804Z,4.90
2023-05-19T17:49:20.018Z,4.90
2023-05-19T17:51:48.339Z,4.93
2023-05-19T17:54:17.018Z,4.73
2023-05-19T17:56:46.420Z,4.30
2023-05-19T17:59:16.228Z,5.00
2023-05-19T18:01:44.696Z,4.63
2023-05-19T18:04:15.400Z,4.63
2023-05-19T18:06:46.228Z,4.47
2023-05-19T18:09:16.164Z,4.70
2023-05-19T18:11:44.334Z,4.53
2023-05-19T18:14:12.372Z,4.10
2023-05-19T18:16:42.167Z,4.43
2023-05-19T18:19:10.577Z,4.80
2023-05-19T18:21:38.802Z,4.87
2023-05-19T18:24:07.343Z,4.50
2023-05-19T18:26:37.845Z,3.87
2023-05-19T18:29:05.897Z,4.30
2023-05-19T18:31:33.904Z,4.87
2023-05-19T18:34:04.301Z,5.40
2023-05-19T18:36:32.672Z,4.90
2023-05-19T18:39:01.769Z,4.60
2023-05-19T18:41:29.913Z,4.63
2023-05-19T18:43:57.908Z,6.43
2023-05-19T18:46:26.353Z,5.63
2023-05-19T18:48:54.595Z,5.20
2023-05-19T18:51:24.100Z,5.27
2023-05-19T18:53:52.126Z,4.80
2023-05-19T18:56:24.662Z,4.93
2023-05-19T18:58:52.884Z,4.73
2023-05-19T19:01:20.937Z,4.87
2023-05-19T19:03:49.332Z,5.13
2023-05-19T19:06:18.171Z,4.80
2023-05-19T19:08:47.824Z,4.90
2023-05-19T19:11:15.800Z,4.70
2023-05-19T19:13:43.941Z,4.57
2023-05-19T19:16:11.953Z,4.53
2023-05-19T19:18:40.200Z,4.50
2023-05-19T19:21:08.387Z,4.40
2023-05-19T19:23:36.403Z,5.40
2023-05-19T19:26:08.432Z,4.47
2023-05-19T19:28:36.657Z,5.20
2023-05-19T19:31:04.995Z,4.80
2023-05-19T19:33:32.957Z,4.97
2023-05-19T19:36:01.353Z,4.13
2023-05-19T19:38:29.567Z,4.43
2023-05-19T19:40:57.646Z,4.97
2023-05-19T19:43:27.159Z,4.60
2023-05-19T19:46:01.094Z,6.97
2023-05-19T19:48:29.455Z,5.50
2023-05-19T19:50:57.702Z,5.03
2023-05-19T19:53:25.751Z,4.30
2023-05-19T19:56:00.413Z,6.93
2023-05-19T19:58:30.211Z,5.60
2023-05-19T20:00:58.988Z,5.28
2023-05-19T20:03:27.806Z,4.77
2023-05-19T20:05:57.495Z,5.30
2023-05-19T20:08:26.307Z,5.17
2023-05-19T20:10:54.569Z,4.50
2023-05-19T20:13:22.736Z,4.87
2023-05-19T20:15:52.379Z,5.27
2023-05-19T20:18:20.565Z,4.50
2023-05-19T20:20:48.543Z,4.67
2023-05-19T20:23:16.647Z,4.60
2023-05-19T20:26:02.472Z,4.03
2023-05-19T20:28:32.808Z,4.17
2023-05-19T20:31:02.503Z,3.60
2023-05-19T20:33:31.665Z,4.05
2023-05-19T20:35:59.756Z,3.77
2023-05-19T20:38:27.877Z,3.65
2023-05-19T20:40:55.977Z,4.18
2023-05-19T20:43:23.970Z,3.33
2023-05-19T20:45:52.309Z,4.00
2023-05-19T20:48:21.747Z,4.10
2023-05-19T20:50:49.668Z,3.27
2023-05-19T20:53:19.366Z,3.83
2023-05-19T20:55:47.614Z,3.20
2023-05-19T20:58:15.570Z,3.53
2023-05-19T21:00:43.521Z,4.60
2023-05-19T21:03:12.161Z,3.17
2023-05-19T21:05:41.503Z,3.35
2023-05-19T21:08:12.843Z,4.23
2023-05-19T21:10:41.008Z,3.77
2023-05-19T21:13:09.102Z,3.27
2023-05-19T21:15:37.063Z,2.77
2023-05-19T21:18:08.901Z,3.00
2023-05-19T21:20:36.905Z,3.83
2023-05-19T21:23:06.402Z,3.10
2023-05-19T21:25:34.497Z,3.93
2023-05-19T21:28:02.649Z,3.60
2023-05-19T21:30:30.969Z,2.63
2023-05-19T21:32:59.243Z,3.30
2023-05-19T21:35:27.543Z,2.93
2023-05-19T21:37:55.732Z,3.60
2023-05-19T21:40:25.265Z,3.63
2023-05-19T21:42:53.195Z,3.07
2023-05-19T21:45:21.144Z,2.90
2023-05-19T21:47:49.319Z,3.00
2023-05-19T21:50:17.536Z,2.93
2023-05-19T21:52:45.598Z,3.73
2023-05-19T21:55:13.558Z,3.60
2023-05-19T21:57:42.936Z,3.13
2023-05-19T22:00:13.288Z,3.50
2023-05-19T22:02:41.952Z,3.07
2023-05-19T22:05:10.687Z,2.87
2023-05-19T22:07:39.207Z,2.70
2023-05-19T22:10:08.177Z,3.13
2023-05-19T22:12:36.148Z,3.67
2023-05-19T22:15:06.851Z,2.40
2023-05-19T22:17:34.908Z,3.63
2023-05-19T22:20:02.933Z,3.07
2023-05-19T22:22:31.027Z,3.37
2023-05-19T22:24:59.397Z,3.00
2023-05-19T22:27:27.320Z,3.13
2023-05-19T22:29:55.279Z,3.23
2023-05-19T22:32:24.558Z,2.60
2023-05-19T22:34:52.726Z,2.70
2023-05-19T22:37:21.304Z,2.53
2023-05-19T22:39:49.261Z,3.07
2023-05-19T22:42:18.446Z,3.43
2023-05-19T22:44:46.744Z,3.00
2023-05-19T22:47:15.000Z,3.30
2023-05-19T22:49:44.794Z,3.30
2023-05-19T22:52:12.963Z,3.60
2023-05-19T22:54:41.072Z,3.50
2023-05-19T22:57:09.218Z,3.40
2023-05-19T22:59:38.266Z,3.50
2023-05-19T23:02:06.544Z,3.93
2023-05-19T23:04:35.213Z,3.47
2023-05-19T23:07:04.745Z,4.47
2023-05-19T23:09:32.812Z,4.47
2023-05-19T23:12:00.830Z,4.07
2023-05-19T23:14:30.311Z,3.80
2023-05-19T23:16:58.400Z,4.13
2023-05-19T23:19:27.788Z,4.10
2023-05-19T23:21:55.772Z,3.40
2023-05-19T23:24:25.106Z,3.73
2023-05-19T23:26:54.609Z,4.30
2023-05-19T23:29:22.692Z,3.40
2023-05-19T23:31:50.861Z,3.80
2023-05-19T23:34:19.110Z,5.10
2023-05-19T23:36:47.080Z,3.20
2023-05-19T23:39:15.156Z,3.37
2023-05-19T23:41:44.518Z,3.77
2023-05-19T23:44:12.640Z,3.67
2023-05-19T23:46:40.786Z,3.57
2023-05-19T23:49:08.756Z,3.70
2023-05-19T23:51:36.766Z,4.03
2023-05-19T23:54:04.883Z,3.83
2023-05-19T23:56:32.840Z,3.60
2023-05-19T23:59:02.233Z,3.87
